Terminal Aerodrome Forecast
Issued by NWS

Current Version | Previous Version | Text Only | Print | Product List | Glossary On
Versions: 1 2 3 4 5 6 7 8 9 10 11 12 13 14 15 16 17 18 19 20 21 22 23 24 25 26 27
000
FTUS41 KOKX 211200 AAA
TAFGON
TAF AMD
KGON 211212Z 2112/2212 16005KT 6SM BR VCSH SCT007 BKN015
      TEMPO 2112/2115 3SM -SHRA BR BKN007
     FM211700 15005KT P6SM BKN025
     FM212000 16008KT P6SM SCT015 BKN030 BKN250
     FM220000 VRB05KT 6SM BR SCT007 BKN015
     FM220300 23005KT 5SM BR BKN007
     FM220800 29007KT P6SM SCT025=

USA.gov is the U.S. government's official web portal to all federal, state and local government web resources and services.